Cedarfalls, Iowa
Current Conditions -  °F | °C
As of 1:54 AM on Thursday 29 Jan 2015 (Local Time) from KALO Reporting Station
Haze Haze  
Wind Chill: -5°   Ceiling: 500
Heat Index:   Visibility: 4mi
Dew Point:   Wind: 13mph
Humidity: 100%   Direction: 330°NNW
Pressure: 29.8"   Gusts: NA
Location:  42.5035°N, 92.4936°W
Report Text: KALO 290754Z AUTO 33011KT 4SM BR OVC005 00/00 A2980 RMK AO2 UPB30E43 SLP101 P0000 T00000000
Loading
Personal Weather Stations






























Interactive Weather Map New forecast layout! Learn more

10-Day Weather Forecast

Advertisements
Track Severe Weather on mobile